Weather at Hohenems-Dornbirn Airfield

Public forecast

Using degrees Celsius for public forecast. Weather courtesy of forecast.io.

Closest aviation weather report (METAR) to Hohenems-Dornbirn Airfield

Closest report is Sankt Gallen Altenrhein Airport, 8.3 nm (15.3 km) NW.

2024/06/20 17:50 (retrieved 21 minutes ago)

LSZR 201750Z VRB03KT CAVOK 24/19 Q1016 RMK N

Closest aviation forecast (TAF) to Hohenems-Dornbirn Airfield

Closest forecast is Dübendorf Air Base, 42.7 nm (79.2 km) W.

2024/06/20 17:00 (retrieved 1 hour ago)

TAF LSMD 201625Z 2017/2123 23003KT CAVOK PROB30 TEMPO 2017/2021 SHRA FEW040TCU TEMPO 2104/2121 SHRA SCT040TCU PROB30 TEMPO 2112/2121 25015G25KT 4000 TSRA SCT040CB